sensor_id;sensor_type;location;lat;lon;timestamp;pressure;altitude;pressure_sealevel;temperature
73937;BMP180;59249;59.736;30.568;2023-04-24T00:00:47;100332.00;;;10.60
73937;BMP180;59249;59.736;30.568;2023-04-24T00:03:16;100326.00;;;10.60
73937;BMP180;59249;59.736;30.568;2023-04-24T00:05:49;100333.00;;;10.60
73937;BMP180;59249;59.736;30.568;2023-04-24T00:08:19;100320.00;;;10.70
73937;BMP180;59249;59.736;30.568;2023-04-24T00:10:48;100334.00;;;10.70
73937;BMP180;59249;59.736;30.568;2023-04-24T00:13:17;100324.00;;;10.80
73937;BMP180;59249;59.736;30.568;2023-04-24T00:15:45;100326.00;;;10.80
73937;BMP180;59249;59.736;30.568;2023-04-24T00:18:14;100321.00;;;10.80
73937;BMP180;59249;59.736;30.568;2023-04-24T00:20:43;100325.00;;;10.90
73937;BMP180;59249;59.736;30.568;2023-04-24T00:23:15;100324.00;;;10.90
73937;BMP180;59249;59.736;30.568;2023-04-24T00:25:43;100314.00;;;10.90
73937;BMP180;59249;59.736;30.568;2023-04-24T00:28:12;100318.00;;;10.90
73937;BMP180;59249;59.736;30.568;2023-04-24T00:30:41;100314.00;;;11.00
73937;BMP180;59249;59.736;30.568;2023-04-24T00:33:10;100305.00;;;11.00
73937;BMP180;59249;59.736;30.568;2023-04-24T00:35:38;100311.00;;;11.00
73937;BMP180;59249;59.736;30.568;2023-04-24T00:38:07;100307.00;;;11.00
73937;BMP180;59249;59.736;30.568;2023-04-24T00:40:37;100313.00;;;11.00
73937;BMP180;59249;59.736;30.568;2023-04-24T00:43:06;100314.00;;;11.00
73937;BMP180;59249;59.736;30.568;2023-04-24T00:45:36;100308.00;;;11.00
73937;BMP180;59249;59.736;30.568;2023-04-24T00:48:05;100300.00;;;10.90
73937;BMP180;59249;59.736;30.568;2023-04-24T00:50:36;100301.00;;;11.00
73937;BMP180;59249;59.736;30.568;2023-04-24T00:53:05;100302.00;;;11.00
73937;BMP180;59249;59.736;30.568;2023-04-24T00:55:34;100297.00;;;11.10
73937;BMP180;59249;59.736;30.568;2023-04-24T00:58:05;100299.00;;;11.00
73937;BMP180;59249;59.736;30.568;2023-04-24T01:00:34;100293.00;;;11.00
73937;BMP180;59249;59.736;30.568;2023-04-24T01:03:04;100304.00;;;11.10
73937;BMP180;59249;59.736;30.568;2023-04-24T01:05:34;100294.00;;;11.10
73937;BMP180;59249;59.736;30.568;2023-04-24T01:08:03;100296.00;;;11.10
73937;BMP180;59249;59.736;30.568;2023-04-24T01:10:33;100294.00;;;11.20
73937;BMP180;59249;59.736;30.568;2023-04-24T01:13:03;100295.00;;;11.20
73937;BMP180;59249;59.736;30.568;2023-04-24T01:15:33;100297.00;;;11.20
73937;BMP180;59249;59.736;30.568;2023-04-24T01:18:01;100299.00;;;11.20
73937;BMP180;59249;59.736;30.568;2023-04-24T01:20:31;100295.00;;;11.10
73937;BMP180;59249;59.736;30.568;2023-04-24T01:23:02;100300.00;;;11.10
73937;BMP180;59249;59.736;30.568;2023-04-24T01:25:31;100293.00;;;11.10
73937;BMP180;59249;59.736;30.568;2023-04-24T01:28:00;100289.00;;;11.10
73937;BMP180;59249;59.736;30.568;2023-04-24T01:30:31;100290.00;;;11.10
73937;BMP180;59249;59.736;30.568;2023-04-24T01:33:01;100294.00;;;11.10
73937;BMP180;59249;59.736;30.568;2023-04-24T01:35:30;100292.00;;;11.10
73937;BMP180;59249;59.736;30.568;2023-04-24T01:37:59;100288.00;;;11.10
73937;BMP180;59249;59.736;30.568;2023-04-24T01:40:29;100284.00;;;11.10
73937;BMP180;59249;59.736;30.568;2023-04-24T01:42:59;100279.00;;;11.10
73937;BMP180;59249;59.736;30.568;2023-04-24T01:45:29;100278.00;;;11.20
73937;BMP180;59249;59.736;30.568;2023-04-24T01:47:58;100281.00;;;11.20
73937;BMP180;59249;59.736;30.568;2023-04-24T01:50:29;100280.00;;;11.10
73937;BMP180;59249;59.736;30.568;2023-04-24T01:52:57;100272.00;;;11.20
73937;BMP180;59249;59.736;30.568;2023-04-24T01:55:28;100279.00;;;11.20
73937;BMP180;59249;59.736;30.568;2023-04-24T01:57:57;100272.00;;;11.20
73937;BMP180;59249;59.736;30.568;2023-04-24T02:00:28;100277.00;;;11.20
73937;BMP180;59249;59.736;30.568;2023-04-24T02:02:57;100274.00;;;11.20
73937;BMP180;59249;59.736;30.568;2023-04-24T02:05:26;100270.00;;;11.20
73937;BMP180;59249;59.736;30.568;2023-04-24T02:07:55;100268.00;;;11.30
73937;BMP180;59249;59.736;30.568;2023-04-24T02:10:24;100266.00;;;11.30
73937;BMP180;59249;59.736;30.568;2023-04-24T02:12:55;100274.00;;;11.30
73937;BMP180;59249;59.736;30.568;2023-04-24T02:15:24;100268.00;;;11.30
73937;BMP180;59249;59.736;30.568;2023-04-24T02:17:53;100262.00;;;11.30
73937;BMP180;59249;59.736;30.568;2023-04-24T02:20:22;100269.00;;;11.40
73937;BMP180;59249;59.736;30.568;2023-04-24T02:22:53;100267.00;;;11.40
73937;BMP180;59249;59.736;30.568;2023-04-24T02:25:22;100265.00;;;11.20
73937;BMP180;59249;59.736;30.568;2023-04-24T02:27:54;100257.00;;;11.30
73937;BMP180;59249;59.736;30.568;2023-04-24T02:30:23;100257.00;;;11.30
73937;BMP180;59249;59.736;30.568;2023-04-24T02:32:52;100264.00;;;11.30
73937;BMP180;59249;59.736;30.568;2023-04-24T02:35:22;100255.00;;;11.40
73937;BMP180;59249;59.736;30.568;2023-04-24T02:37:50;100255.00;;;11.40
73937;BMP180;59249;59.736;30.568;2023-04-24T02:40:19;100261.00;;;11.30
73937;BMP180;59249;59.736;30.568;2023-04-24T02:42:48;100257.00;;;11.30
73937;BMP180;59249;59.736;30.568;2023-04-24T02:45:18;100255.00;;;11.30
73937;BMP180;59249;59.736;30.568;2023-04-24T02:47:47;100251.00;;;11.30
73937;BMP180;59249;59.736;30.568;2023-04-24T02:50:16;100253.00;;;11.20
73937;BMP180;59249;59.736;30.568;2023-04-24T02:52:45;100252.00;;;11.20
73937;BMP180;59249;59.736;30.568;2023-04-24T02:55:14;100256.00;;;11.10
73937;BMP180;59249;59.736;30.568;2023-04-24T02:57:42;100254.00;;;11.10
73937;BMP180;59249;59.736;30.568;2023-04-24T03:00:12;100259.00;;;11.10
73937;BMP180;59249;59.736;30.568;2023-04-24T03:02:42;100246.00;;;11.00
73937;BMP180;59249;59.736;30.568;2023-04-24T03:05:11;100249.00;;;11.00
73937;BMP180;59249;59.736;30.568;2023-04-24T03:07:40;100245.00;;;11.00
73937;BMP180;59249;59.736;30.568;2023-04-24T03:10:09;100245.00;;;11.00
73937;BMP180;59249;59.736;30.568;2023-04-24T03:12:38;100253.00;;;11.00
73937;BMP180;59249;59.736;30.568;2023-04-24T03:15:08;100247.00;;;11.10
73937;BMP180;59249;59.736;30.568;2023-04-24T03:17:37;100251.00;;;11.10
73937;BMP180;59249;59.736;30.568;2023-04-24T03:20:09;100243.00;;;11.30
73937;BMP180;59249;59.736;30.568;2023-04-24T03:22:38;100249.00;;;11.40
73937;BMP180;59249;59.736;30.568;2023-04-24T03:25:09;100252.00;;;11.50
73937;BMP180;59249;59.736;30.568;2023-04-24T03:27:38;100258.00;;;11.50
73937;BMP180;59249;59.736;30.568;2023-04-24T03:30:17;100249.00;;;11.50
73937;BMP180;59249;59.736;30.568;2023-04-24T03:32:51;100253.00;;;11.70
73937;BMP180;59249;59.736;30.568;2023-04-24T03:35:26;100250.00;;;11.80
73937;BMP180;59249;59.736;30.568;2023-04-24T03:37:56;100251.00;;;11.90
73937;BMP180;59249;59.736;30.568;2023-04-24T03:40:44;100254.00;;;12.00
73937;BMP180;59249;59.736;30.568;2023-04-24T03:43:36;100252.00;;;12.00
73937;BMP180;59249;59.736;30.568;2023-04-24T03:46:05;100255.00;;;12.10
73937;BMP180;59249;59.736;30.568;2023-04-24T03:48:41;100261.00;;;12.20
73937;BMP180;59249;59.736;30.568;2023-04-24T03:51:11;100259.00;;;12.20
73937;BMP180;59249;59.736;30.568;2023-04-24T03:53:44;100260.00;;;12.30
73937;BMP180;59249;59.736;30.568;2023-04-24T03:56:17;100251.00;;;12.20
73937;BMP180;59249;59.736;30.568;2023-04-24T03:58:46;100254.00;;;12.30
73937;BMP180;59249;59.736;30.568;2023-04-24T04:01:15;100249.00;;;12.30
73937;BMP180;59249;59.736;30.568;2023-04-24T04:03:53;100246.00;;;12.30
73937;BMP180;59249;59.736;30.568;2023-04-24T04:06:26;100244.00;;;12.30
73937;BMP180;59249;59.736;30.568;2023-04-24T04:08:58;100250.00;;;12.40
73937;BMP180;59249;59.736;30.568;2023-04-24T04:11:29;100251.00;;;12.50
73937;BMP180;59249;59.736;30.568;2023-04-24T04:13:58;100250.00;;;12.60
73937;BMP180;59249;59.736;30.568;2023-04-24T04:16:27;100237.00;;;12.70
73937;BMP180;59249;59.736;30.568;2023-04-24T04:19:01;100252.00;;;12.80
73937;BMP180;59249;59.736;30.568;2023-04-24T04:21:32;100256.00;;;13.00
73937;BMP180;59249;59.736;30.568;2023-04-24T04:24:24;100248.00;;;13.10
73937;BMP180;59249;59.736;30.568;2023-04-24T04:26:53;100250.00;;;13.10
73937;BMP180;59249;59.736;30.568;2023-04-24T04:29:31;100252.00;;;13.10
73937;BMP180;59249;59.736;30.568;2023-04-24T04:32:03;100250.00;;;13.10
73937;BMP180;59249;59.736;30.568;2023-04-24T04:34:33;100244.00;;;13.20
73937;BMP180;59249;59.736;30.568;2023-04-24T04:37:06;100246.00;;;13.20
73937;BMP180;59249;59.736;30.568;2023-04-24T04:39:44;100256.00;;;13.30
73937;BMP180;59249;59.736;30.568;2023-04-24T04:42:22;100246.00;;;13.30
73937;BMP180;59249;59.736;30.568;2023-04-24T04:44:51;100247.00;;;13.30
73937;BMP180;59249;59.736;30.568;2023-04-24T04:47:26;100243.00;;;13.40
73937;BMP180;59249;59.736;30.568;2023-04-24T04:49:56;100246.00;;;13.50
73937;BMP180;59249;59.736;30.568;2023-04-24T04:52:31;100238.00;;;13.40
73937;BMP180;59249;59.736;30.568;2023-04-24T04:55:22;100248.00;;;13.40
73937;BMP180;59249;59.736;30.568;2023-04-24T04:58:13;100249.00;;;13.50
73937;BMP180;59249;59.736;30.568;2023-04-24T05:00:43;100243.00;;;13.60
73937;BMP180;59249;59.736;30.568;2023-04-24T05:03:20;100240.00;;;13.70
73937;BMP180;59249;59.736;30.568;2023-04-24T05:05:55;100245.00;;;13.70
73937;BMP180;59249;59.736;30.568;2023-04-24T05:08:28;100235.00;;;13.80
73937;BMP180;59249;59.736;30.568;2023-04-24T05:10:58;100246.00;;;13.80
73937;BMP180;59249;59.736;30.568;2023-04-24T05:13:29;100233.00;;;13.90
73937;BMP180;59249;59.736;30.568;2023-04-24T05:16:27;100243.00;;;13.90
73937;BMP180;59249;59.736;30.568;2023-04-24T05:18:56;100227.00;;;14.00
73937;BMP180;59249;59.736;30.568;2023-04-24T05:21:30;100226.00;;;14.10
73937;BMP180;59249;59.736;30.568;2023-04-24T05:24:01;100234.00;;;14.10
73937;BMP180;59249;59.736;30.568;2023-04-24T05:27:02;100234.00;;;14.20
73937;BMP180;59249;59.736;30.568;2023-04-24T05:29:38;100226.00;;;14.30
73937;BMP180;59249;59.736;30.568;2023-04-24T05:32:08;100224.00;;;14.40
73937;BMP180;59249;59.736;30.568;2023-04-24T05:34:37;100228.00;;;14.50
73937;BMP180;59249;59.736;30.568;2023-04-24T05:37:06;100224.00;;;14.60
73937;BMP180;59249;59.736;30.568;2023-04-24T05:39:38;100231.00;;;14.70
73937;BMP180;59249;59.736;30.568;2023-04-24T05:42:08;100224.00;;;14.70
73937;BMP180;59249;59.736;30.568;2023-04-24T05:44:37;100219.00;;;14.80
73937;BMP180;59249;59.736;30.568;2023-04-24T05:47:06;100223.00;;;14.90
73937;BMP180;59249;59.736;30.568;2023-04-24T05:49:34;100228.00;;;15.00
73937;BMP180;59249;59.736;30.568;2023-04-24T05:52:03;100225.00;;;15.10
73937;BMP180;59249;59.736;30.568;2023-04-24T05:54:33;100225.00;;;15.20
73937;BMP180;59249;59.736;30.568;2023-04-24T05:57:04;100229.00;;;15.30
73937;BMP180;59249;59.736;30.568;2023-04-24T05:59:50;100230.00;;;15.50
73937;BMP180;59249;59.736;30.568;2023-04-24T06:02:21;100226.00;;;15.60
73937;BMP180;59249;59.736;30.568;2023-04-24T06:04:50;100225.00;;;15.60
73937;BMP180;59249;59.736;30.568;2023-04-24T06:07:19;100224.00;;;15.70
73937;BMP180;59249;59.736;30.568;2023-04-24T06:09:48;100217.00;;;15.80
73937;BMP180;59249;59.736;30.568;2023-04-24T06:12:18;100225.00;;;15.80
73937;BMP180;59249;59.736;30.568;2023-04-24T06:14:56;100209.00;;;16.00
73937;BMP180;59249;59.736;30.568;2023-04-24T06:17:48;100211.00;;;16.10
73937;BMP180;59249;59.736;30.568;2023-04-24T06:20:20;100215.00;;;16.10
73937;BMP180;59249;59.736;30.568;2023-04-24T06:22:49;100213.00;;;16.20
73937;BMP180;59249;59.736;30.568;2023-04-24T06:25:18;100213.00;;;16.30
73937;BMP180;59249;59.736;30.568;2023-04-24T06:27:48;100216.00;;;16.50
73937;BMP180;59249;59.736;30.568;2023-04-24T06:30:17;100215.00;;;16.60
73937;BMP180;59249;59.736;30.568;2023-04-24T06:32:46;100215.00;;;16.70
73937;BMP180;59249;59.736;30.568;2023-04-24T06:35:15;100211.00;;;16.70
73937;BMP180;59249;59.736;30.568;2023-04-24T06:37:44;100208.00;;;16.90
73937;BMP180;59249;59.736;30.568;2023-04-24T06:40:13;100209.00;;;17.00
73937;BMP180;59249;59.736;30.568;2023-04-24T06:42:41;100206.00;;;17.00
73937;BMP180;59249;59.736;30.568;2023-04-24T06:45:11;100213.00;;;17.10
73937;BMP180;59249;59.736;30.568;2023-04-24T06:47:41;100207.00;;;17.20
73937;BMP180;59249;59.736;30.568;2023-04-24T06:50:10;100208.00;;;17.20
73937;BMP180;59249;59.736;30.568;2023-04-24T06:52:40;100208.00;;;17.40
73937;BMP180;59249;59.736;30.568;2023-04-24T06:55:09;100197.00;;;17.50
73937;BMP180;59249;59.736;30.568;2023-04-24T06:57:38;100200.00;;;17.50
73937;BMP180;59249;59.736;30.568;2023-04-24T07:00:08;100209.00;;;17.70
73937;BMP180;59249;59.736;30.568;2023-04-24T07:02:40;100198.00;;;17.70
73937;BMP180;59249;59.736;30.568;2023-04-24T07:05:09;100198.00;;;17.80
73937;BMP180;59249;59.736;30.568;2023-04-24T07:07:38;100193.00;;;17.90
73937;BMP180;59249;59.736;30.568;2023-04-24T07:10:08;100188.00;;;18.00
73937;BMP180;59249;59.736;30.568;2023-04-24T07:12:37;100193.00;;;18.10
73937;BMP180;59249;59.736;30.568;2023-04-24T07:15:07;100189.00;;;18.20
73937;BMP180;59249;59.736;30.568;2023-04-24T07:17:36;100190.00;;;18.20
73937;BMP180;59249;59.736;30.568;2023-04-24T07:20:11;100190.00;;;18.30
73937;BMP180;59249;59.736;30.568;2023-04-24T07:22:41;100185.00;;;18.40
73937;BMP180;59249;59.736;30.568;2023-04-24T07:25:10;100187.00;;;18.50
73937;BMP180;59249;59.736;30.568;2023-04-24T07:27:39;100186.00;;;18.60
73937;BMP180;59249;59.736;30.568;2023-04-24T07:30:08;100197.00;;;18.70
73937;BMP180;59249;59.736;30.568;2023-04-24T07:32:38;100183.00;;;18.70
73937;BMP180;59249;59.736;30.568;2023-04-24T07:35:07;100189.00;;;18.80
73937;BMP180;59249;59.736;30.568;2023-04-24T07:37:38;100199.00;;;18.90
73937;BMP180;59249;59.736;30.568;2023-04-24T07:40:07;100198.00;;;19.00
73937;BMP180;59249;59.736;30.568;2023-04-24T07:42:36;100182.00;;;19.10
73937;BMP180;59249;59.736;30.568;2023-04-24T07:45:06;100191.00;;;19.10
73937;BMP180;59249;59.736;30.568;2023-04-24T07:47:35;100189.00;;;19.20
73937;BMP180;59249;59.736;30.568;2023-04-24T07:50:06;100193.00;;;19.30
73937;BMP180;59249;59.736;30.568;2023-04-24T07:52:35;100193.00;;;19.30
73937;BMP180;59249;59.736;30.568;2023-04-24T07:55:06;100196.00;;;19.40
73937;BMP180;59249;59.736;30.568;2023-04-24T07:57:35;100194.00;;;19.50
73937;BMP180;59249;59.736;30.568;2023-04-24T08:00:05;100201.00;;;19.50
73937;BMP180;59249;59.736;30.568;2023-04-24T08:02:38;100173.00;;;19.60
73937;BMP180;59249;59.736;30.568;2023-04-24T08:05:08;100179.00;;;19.70
73937;BMP180;59249;59.736;30.568;2023-04-24T08:07:38;100191.00;;;19.80
73937;BMP180;59249;59.736;30.568;2023-04-24T08:10:09;100193.00;;;19.80
73937;BMP180;59249;59.736;30.568;2023-04-24T08:12:38;100182.00;;;19.80
73937;BMP180;59249;59.736;30.568;2023-04-24T08:15:08;100185.00;;;19.90
73937;BMP180;59249;59.736;30.568;2023-04-24T08:17:38;100182.00;;;20.00
73937;BMP180;59249;59.736;30.568;2023-04-24T08:20:08;100197.00;;;20.00
73937;BMP180;59249;59.736;30.568;2023-04-24T08:22:44;100185.00;;;20.10
73937;BMP180;59249;59.736;30.568;2023-04-24T08:25:16;100177.00;;;20.10
73937;BMP180;59249;59.736;30.568;2023-04-24T08:27:46;100192.00;;;20.30
73937;BMP180;59249;59.736;30.568;2023-04-24T08:30:18;100186.00;;;20.30
73937;BMP180;59249;59.736;30.568;2023-04-24T08:32:47;100188.00;;;20.30
73937;BMP180;59249;59.736;30.568;2023-04-24T08:35:17;100095.00;;;20.30
73937;BMP180;59249;59.736;30.568;2023-04-24T08:37:46;100178.00;;;20.30
73937;BMP180;59249;59.736;30.568;2023-04-24T08:40:17;100184.00;;;20.20
73937;BMP180;59249;59.736;30.568;2023-04-24T08:42:45;100166.00;;;20.10
73937;BMP180;59249;59.736;30.568;2023-04-24T08:45:17;100173.00;;;20.10
73937;BMP180;59249;59.736;30.568;2023-04-24T08:47:45;100178.00;;;20.20
73937;BMP180;59249;59.736;30.568;2023-04-24T08:50:17;100184.00;;;20.10
73937;BMP180;59249;59.736;30.568;2023-04-24T08:52:47;100182.00;;;20.20
73937;BMP180;59249;59.736;30.568;2023-04-24T08:55:19;100168.00;;;20.20
73937;BMP180;59249;59.736;30.568;2023-04-24T08:57:51;100174.00;;;20.30
73937;BMP180;59249;59.736;30.568;2023-04-24T09:00:21;100178.00;;;20.40
73937;BMP180;59249;59.736;30.568;2023-04-24T09:02:52;100155.00;;;20.40
73937;BMP180;59249;59.736;30.568;2023-04-24T09:05:22;100174.00;;;20.40
73937;BMP180;59249;59.736;30.568;2023-04-24T09:07:57;100158.00;;;20.50
73937;BMP180;59249;59.736;30.568;2023-04-24T09:10:31;100182.00;;;20.60
73937;BMP180;59249;59.736;30.568;2023-04-24T09:13:02;100178.00;;;20.60
73937;BMP180;59249;59.736;30.568;2023-04-24T09:15:31;100193.00;;;20.70
73937;BMP180;59249;59.736;30.568;2023-04-24T09:18:00;100181.00;;;20.70
73937;BMP180;59249;59.736;30.568;2023-04-24T09:20:29;100173.00;;;20.70
73937;BMP180;59249;59.736;30.568;2023-04-24T09:22:59;100180.00;;;20.70
73937;BMP180;59249;59.736;30.568;2023-04-24T09:25:32;100187.00;;;20.70
73937;BMP180;59249;59.736;30.568;2023-04-24T09:28:04;100177.00;;;20.70
73937;BMP180;59249;59.736;30.568;2023-04-24T09:30:33;100173.00;;;20.80
73937;BMP180;59249;59.736;30.568;2023-04-24T09:33:13;100173.00;;;20.80
73937;BMP180;59249;59.736;30.568;2023-04-24T09:35:50;100183.00;;;20.90
73937;BMP180;59249;59.736;30.568;2023-04-24T09:38:20;100196.00;;;20.90
73937;BMP180;59249;59.736;30.568;2023-04-24T09:41:01;100173.00;;;20.90
73937;BMP180;59249;59.736;30.568;2023-04-24T09:43:32;100178.00;;;21.00
73937;BMP180;59249;59.736;30.568;2023-04-24T09:46:05;100177.00;;;21.00
73937;BMP180;59249;59.736;30.568;2023-04-24T09:48:37;100141.00;;;21.00
73937;BMP180;59249;59.736;30.568;2023-04-24T09:51:07;100176.00;;;21.20
73937;BMP180;59249;59.736;30.568;2023-04-24T09:53:38;100167.00;;;21.20
73937;BMP180;59249;59.736;30.568;2023-04-24T09:56:13;100169.00;;;21.20
73937;BMP180;59249;59.736;30.568;2023-04-24T09:58:42;100172.00;;;21.20
73937;BMP180;59249;59.736;30.568;2023-04-24T10:01:10;100162.00;;;21.30
73937;BMP180;59249;59.736;30.568;2023-04-24T10:03:42;100171.00;;;21.30
73937;BMP180;59249;59.736;30.568;2023-04-24T10:06:12;100166.00;;;21.40
73937;BMP180;59249;59.736;30.568;2023-04-24T10:08:42;100159.00;;;21.50
73937;BMP180;59249;59.736;30.568;2023-04-24T10:11:16;100165.00;;;21.50
73937;BMP180;59249;59.736;30.568;2023-04-24T10:13:45;100186.00;;;21.50
73937;BMP180;59249;59.736;30.568;2023-04-24T10:16:14;100173.00;;;21.50
73937;BMP180;59249;59.736;30.568;2023-04-24T10:18:44;100180.00;;;21.60
73937;BMP180;59249;59.736;30.568;2023-04-24T10:21:14;100173.00;;;21.70
73937;BMP180;59249;59.736;30.568;2023-04-24T10:23:44;100179.00;;;21.70
73937;BMP180;59249;59.736;30.568;2023-04-24T10:26:15;100176.00;;;21.80
73937;BMP180;59249;59.736;30.568;2023-04-24T10:28:46;100166.00;;;21.80
73937;BMP180;59249;59.736;30.568;2023-04-24T10:31:16;100151.00;;;21.80
73937;BMP180;59249;59.736;30.568;2023-04-24T10:33:46;100180.00;;;21.80
73937;BMP180;59249;59.736;30.568;2023-04-24T10:36:18;100187.00;;;21.90
73937;BMP180;59249;59.736;30.568;2023-04-24T10:38:52;100174.00;;;22.00
73937;BMP180;59249;59.736;30.568;2023-04-24T10:41:26;100183.00;;;22.10
73937;BMP180;59249;59.736;30.568;2023-04-24T10:44:10;100177.00;;;22.10
73937;BMP180;59249;59.736;30.568;2023-04-24T10:46:46;100178.00;;;22.20
73937;BMP180;59249;59.736;30.568;2023-04-24T10:49:28;100185.00;;;22.30
73937;BMP180;59249;59.736;30.568;2023-04-24T10:52:00;100181.00;;;22.40
73937;BMP180;59249;59.736;30.568;2023-04-24T10:54:35;100155.00;;;22.50
73937;BMP180;59249;59.736;30.568;2023-04-24T10:57:29;100186.00;;;22.60
73937;BMP180;59249;59.736;30.568;2023-04-24T11:00:19;100186.00;;;22.70
73937;BMP180;59249;59.736;30.568;2023-04-24T11:02:52;100168.00;;;22.80
73937;BMP180;59249;59.736;30.568;2023-04-24T11:05:23;100181.00;;;22.80
73937;BMP180;59249;59.736;30.568;2023-04-24T11:08:26;100192.00;;;23.00
73937;BMP180;59249;59.736;30.568;2023-04-24T11:11:02;100189.00;;;23.20
73937;BMP180;59249;59.736;30.568;2023-04-24T11:14:01;100192.00;;;23.40
73937;BMP180;59249;59.736;30.568;2023-04-24T11:16:33;100195.00;;;23.40
73937;BMP180;59249;59.736;30.568;2023-04-24T11:19:08;100190.00;;;23.40
73937;BMP180;59249;59.736;30.568;2023-04-24T11:21:43;100165.00;;;23.40
73937;BMP180;59249;59.736;30.568;2023-04-24T11:24:29;100197.00;;;23.40
73937;BMP180;59249;59.736;30.568;2023-04-24T11:27:05;100199.00;;;23.40
73937;BMP180;59249;59.736;30.568;2023-04-24T11:29:43;100198.00;;;23.40
73937;BMP180;59249;59.736;30.568;2023-04-24T11:32:24;100193.00;;;23.40
73937;BMP180;59249;59.736;30.568;2023-04-24T11:34:56;100208.00;;;23.40
73937;BMP180;59249;59.736;30.568;2023-04-24T11:37:33;100208.00;;;23.40
73937;BMP180;59249;59.736;30.568;2023-04-24T11:40:06;100198.00;;;23.40
73937;BMP180;59249;59.736;30.568;2023-04-24T11:42:36;100200.00;;;23.40
73937;BMP180;59249;59.736;30.568;2023-04-24T11:45:11;100180.00;;;23.40
73937;BMP180;59249;59.736;30.568;2023-04-24T11:47:41;100200.00;;;23.60
73937;BMP180;59249;59.736;30.568;2023-04-24T11:50:12;100208.00;;;23.60
73937;BMP180;59249;59.736;30.568;2023-04-24T11:52:44;100206.00;;;23.60
73937;BMP180;59249;59.736;30.568;2023-04-24T11:55:25;100220.00;;;23.50
73937;BMP180;59249;59.736;30.568;2023-04-24T11:57:57;100204.00;;;23.40
73937;BMP180;59249;59.736;30.568;2023-04-24T12:00:28;100191.00;;;23.50
73937;BMP180;59249;59.736;30.568;2023-04-24T12:03:06;100191.00;;;23.50
73937;BMP180;59249;59.736;30.568;2023-04-24T12:05:36;100210.00;;;23.60
73937;BMP180;59249;59.736;30.568;2023-04-24T12:08:07;100203.00;;;23.60
73937;BMP180;59249;59.736;30.568;2023-04-24T12:10:36;100210.00;;;23.60
73937;BMP180;59249;59.736;30.568;2023-04-24T12:13:05;100199.00;;;23.70
73937;BMP180;59249;59.736;30.568;2023-04-24T12:15:40;100192.00;;;23.90
73937;BMP180;59249;59.736;30.568;2023-04-24T12:18:11;100195.00;;;23.90
73937;BMP180;59249;59.736;30.568;2023-04-24T12:20:40;100213.00;;;23.90
73937;BMP180;59249;59.736;30.568;2023-04-24T12:23:11;100206.00;;;23.90
73937;BMP180;59249;59.736;30.568;2023-04-24T12:25:39;100199.00;;;24.00
73937;BMP180;59249;59.736;30.568;2023-04-24T12:28:10;100197.00;;;24.10
73937;BMP180;59249;59.736;30.568;2023-04-24T12:30:41;100208.00;;;23.90
73937;BMP180;59249;59.736;30.568;2023-04-24T12:33:11;100200.00;;;23.90
73937;BMP180;59249;59.736;30.568;2023-04-24T12:35:40;100200.00;;;23.80
73937;BMP180;59249;59.736;30.568;2023-04-24T12:38:12;100199.00;;;24.00
73937;BMP180;59249;59.736;30.568;2023-04-24T12:40:43;100203.00;;;24.00
73937;BMP180;59249;59.736;30.568;2023-04-24T12:43:15;100203.00;;;24.00
73937;BMP180;59249;59.736;30.568;2023-04-24T12:45:45;100197.00;;;24.10
73937;BMP180;59249;59.736;30.568;2023-04-24T12:48:15;100201.00;;;24.10
73937;BMP180;59249;59.736;30.568;2023-04-24T12:50:44;100201.00;;;24.00
73937;BMP180;59249;59.736;30.568;2023-04-24T12:53:15;100187.00;;;24.00
73937;BMP180;59249;59.736;30.568;2023-04-24T12:55:44;100186.00;;;23.80
73937;BMP180;59249;59.736;30.568;2023-04-24T12:58:13;100204.00;;;23.70
73937;BMP180;59249;59.736;30.568;2023-04-24T13:00:42;100197.00;;;23.50
73937;BMP180;59249;59.736;30.568;2023-04-24T13:03:12;100204.00;;;23.50
73937;BMP180;59249;59.736;30.568;2023-04-24T13:05:42;100205.00;;;23.50
73937;BMP180;59249;59.736;30.568;2023-04-24T13:08:11;100204.00;;;23.40
73937;BMP180;59249;59.736;30.568;2023-04-24T13:10:42;100205.00;;;23.40
73937;BMP180;59249;59.736;30.568;2023-04-24T13:13:11;100201.00;;;23.30
73937;BMP180;59249;59.736;30.568;2023-04-24T13:15:39;100203.00;;;23.30
73937;BMP180;59249;59.736;30.568;2023-04-24T13:18:09;100201.00;;;23.20
73937;BMP180;59249;59.736;30.568;2023-04-24T13:20:37;100198.00;;;23.20
73937;BMP180;59249;59.736;30.568;2023-04-24T13:23:08;100194.00;;;23.20
73937;BMP180;59249;59.736;30.568;2023-04-24T13:25:37;100198.00;;;23.20
73937;BMP180;59249;59.736;30.568;2023-04-24T13:28:07;100208.00;;;23.30
73937;BMP180;59249;59.736;30.568;2023-04-24T13:30:37;100215.00;;;23.30
73937;BMP180;59249;59.736;30.568;2023-04-24T13:33:06;100211.00;;;23.30
73937;BMP180;59249;59.736;30.568;2023-04-24T13:35:35;100199.00;;;23.20
73937;BMP180;59249;59.736;30.568;2023-04-24T13:38:03;100216.00;;;23.10
73937;BMP180;59249;59.736;30.568;2023-04-24T13:40:36;100231.00;;;22.90
73937;BMP180;59249;59.736;30.568;2023-04-24T13:43:05;100225.00;;;22.60
73937;BMP180;59249;59.736;30.568;2023-04-24T13:45:35;100241.00;;;22.20
73937;BMP180;59249;59.736;30.568;2023-04-24T13:48:04;100243.00;;;21.40
73937;BMP180;59249;59.736;30.568;2023-04-24T13:50:33;100251.00;;;20.90
73937;BMP180;59249;59.736;30.568;2023-04-24T13:53:02;100249.00;;;20.70
73937;BMP180;59249;59.736;30.568;2023-04-24T13:55:31;100273.00;;;20.30
73937;BMP180;59249;59.736;30.568;2023-04-24T13:57:59;100267.00;;;20.00
73937;BMP180;59249;59.736;30.568;2023-04-24T14:00:31;100266.00;;;19.70
73937;BMP180;59249;59.736;30.568;2023-04-24T14:03:00;100281.00;;;19.50
73937;BMP180;59249;59.736;30.568;2023-04-24T14:05:29;100282.00;;;19.20
73937;BMP180;59249;59.736;30.568;2023-04-24T14:07:58;100290.00;;;18.50